Destinations Split Airport

Split Airport (LDSP / SPU)

Flights to Split Airport

Flight number From ETE Dispatch
SPY-2240 EGFF Cardiff International Airport 02:50
SPY-2494 EGPH Edinburgh Airport 03:05
SPY-4128 LIRN Naples International Airport 01:10
SPY-510 EHGG Groningen Airport Eelde 02:15

Flights from Split Airport

Flight number To ETE Dispatch
SPY-2241 EGFF Cardiff International Airport 02:50
SPY-2495 EGPH Edinburgh Airport 03:05
SPY-4129 LIRN Naples International Airport 01:15
SPY-511 EHGG Groningen Airport Eelde
About

Split Airport facts

Split Airport is located in Split at an elevation of 24.1 meters or 79 feet.

Currently, Speedy Airlines serves 8 flights to and from Split Airport.

Detailed airport info

Route map

Weather

Current weather

METAR

METAR

Metar data retrieved Sunday, 21 July 2024 at 18:55 UTC

LDSP 211830Z 00000KT CAVOK 28/21 Q1008 NOSIG
Wind Temperature
0 kt 28c